Latest Weather Observations for Wyndham Airport

IDW60801

Issued at 1:02 pm WST Friday 31 July 2015 (issued every 30 minutes, with the page automatically refreshed every 10 minutes)

About weather observations | Map of weather stations | Latest weather observations for WA | Other Formats
Station Details ID: 001006 Name: WYNDHAM AERO Lat: -15.51 Lon: 128.15 Height: 3.8 m
Data from the previous 72 hours. | See also: Recent months at Wyndham Airport
Date/Time
WST
Temp
°C
App
Temp
°C
Dew
Point
Rel
Hum
%
Delta-T
°C
Wind Press
QNH
hPa
Press
MSL
hPa
Rain
since 9 am
mm
Dir
 
Spd
km/h
Gust
km/h
Spd
kts
Gust
kts
31/01:00pm 32.6 29.5 3.5 16 15.0 E 9 19 5 10 1013.8 1013.8 0.0
31/12:30pm 32.3 28.2 4.2 17 14.6 ENE 15 28 8 15 1014.4 1014.4 0.0
31/12:00pm 32.5 28.0 4.3 17 14.7 E 17 30 9 16 1014.9 1014.9 0.0
31/11:30am 31.9 26.9 3.8 17 14.5 ESE 19 28 10 15 1015.6 1015.6 0.0
31/11:00am 31.8 26.5 2.9 16 14.6 E 20 35 11 19 1016.1 1016.1 0.0
31/10:30am 31.0 24.8 2.3 16 14.3 E 24 37 13 20 1016.6 1016.6 0.0
31/10:00am 30.9 23.9 2.2 16 14.3 ESE 28 37 15 20 1017.1 1017.1 0.0
31/09:30am 29.8 22.7 1.3 16 13.9 ESE 28 39 15 21 1017.5 1017.5 0.0
31/09:00am 29.0 21.9 1.5 17 13.4 ESE 28 37 15 20 1017.8 1017.8 0.0
31/08:30am 28.2 22.7 1.7 18 12.9 E 20 26 11 14 1017.9 1017.9 0.0
31/08:00am 26.2 21.7 2.2 21 11.6 ESE 15 17 8 9 1017.7 1017.7 0.0
31/07:30am 24.1 20.6 3.4 26 10.1 ESE 11 13 6 7 1017.5 1017.5 0.0
31/07:00am 23.5 19.8 4.5 29 9.4 E 13 17 7 9 1017.1 1017.1 0.0
31/06:57am 23.1 19.3 4.1 29 9.3 E 13 17 7 9 1017.0 1017.0 0.0
31/06:30am 18.1 14.4 4.3 40 6.5 E 13 15 7 8 1016.7 1016.7 0.0
31/06:00am 15.0 11.5 3.5 46 5.2 ENE 11 13 6 7 1016.5 1016.5 0.0
31/05:30am 14.0 10.8 3.2 48 4.8 ENE 9 11 5 6 1016.3 1016.3 0.0
31/05:00am 14.7 11.5 3.2 46 5.2 ENE 9 11 5 6 1015.9 1015.9 0.0
31/04:30am 15.3 12.1 3.1 44 5.5 ENE 9 11 5 6 1015.7 1015.7 0.0
31/04:00am 17.9 15.2 3.8 39 6.6 E 7 9 4 5 1015.7 1015.7 0.0
31/03:30am 17.5 14.0 3.4 39 6.5 ESE 11 13 6 7 1015.7 1015.7 0.0
31/03:00am 18.6 15.6 4.0 38 6.9 ESE 9 11 5 6 1015.7 1015.7 0.0
31/02:30am 16.8 13.6 3.1 40 6.3 ESE 9 11 5 6 1015.7 1015.7 0.0
31/02:00am 18.5 15.3 3.2 36 7.1 NE 9 13 5 7 1015.8 1015.8 0.0
31/01:30am 18.6 15.1 3.6 37 7.0 E 11 13 6 7 1015.9 1015.9 0.0
31/01:00am 16.5 13.2 2.2 38 6.4 ESE 9 11 5 6 1016.2 1016.2 0.0
31/12:30am 17.3 14.6 2.5 37 6.7 ENE 6 9 3 5 1016.3 1016.3 0.0
31/12:00am 18.0 15.3 2.7 36 7.0 E 6 7 3 4 1016.6 1016.6 0.0
 
Date/Time
WST
Temp
°C
App
Temp
°C
Dew
Point
Rel
Hum
%
Delta-T
°C
Wind Press
QNH
hPa
Press
MSL
hPa
Rain
since 9 am
mm
Dir
 
Spd
km/h
Gust
km/h
Spd
kts
Gust
kts
30/11:30pm 19.6 17.0 4.1 36 7.4 ENE 7 7 4 4 1016.7 1016.7 0.0
30/11:00pm 20.0 17.2 3.3 33 7.9 E 7 9 4 5 1016.7 1016.7 0.0
30/10:30pm 22.5 19.9 4.1 30 9.0 E 7 7 4 4 1016.7 1016.7 0.0
30/10:00pm 22.4 19.4 4.0 30 8.9 ESE 9 9 5 5 1016.8 1016.8 0.0
30/09:30pm 22.3 19.2 3.4 29 9.1 E 9 11 5 6 1016.9 1016.9 0.0
30/09:00pm 23.7 19.9 4.1 28 9.6 ESE 13 15 7 8 1016.8 1016.8 0.0
30/08:30pm 24.0 21.0 3.9 27 9.9 ESE 9 13 5 7 1016.7 1016.7 0.0
30/08:00pm 24.2 20.7 3.5 26 10.1 E 11 11 6 6 1016.5 1016.5 0.0
30/07:30pm 25.8 22.5 4.3 25 10.8 E 11 13 6 7 1016.3 1016.3 0.0
30/07:00pm 25.5 22.1 4.0 25 10.7 ESE 11 15 6 8 1015.8 1015.8 0.0
30/06:30pm 27.5 22.8 3.2 21 12.1 SE 17 20 9 11 1015.4 1015.4 0.0
30/06:00pm 26.6 23.3 4.4 24 11.2 ESE 11 15 6 8 1015.2 1015.2 0.0
30/05:30pm 28.6 24.1 4.2 21 12.4 SE 17 20 9 11 1014.9 1014.9 0.0
30/05:00pm 30.3 25.8 4.1 19 13.4 SE 17 20 9 11 1014.5 1014.5 0.0
30/04:30pm 31.7 27.6 4.5 18 14.2 SE 15 24 8 13 1014.5 1014.5 0.0
30/04:00pm 32.5 27.6 5.1 18 14.5 ESE 20 28 11 15 1014.2 1014.2 0.0
30/03:30pm 32.6 27.9 5.2 18 14.5 ESE 19 26 10 14 1014.3 1014.3 0.0
30/03:00pm 32.6 27.9 5.2 18 14.5 SE 19 32 10 17 1014.4 1014.4 0.0
30/02:30pm 32.9 28.1 5.5 18 14.6 SE 20 32 11 17 1014.6 1014.6 0.0
30/02:00pm 32.9 28.4 6.2 19 14.4 ESE 19 30 10 16 1014.9 1014.9 0.0
30/01:30pm 32.9 27.8 6.2 19 14.4 E 22 33 12 18 1015.3 1015.3 0.0
30/01:00pm 32.1 27.8 7.0 21 13.6 SE 19 35 10 19 1015.8 1015.8 0.0
30/12:30pm 32.9 28.6 7.0 20 14.1 E 19 37 10 20 1016.4 1016.4 0.0
30/12:00pm 32.6 27.8 7.4 21 13.8 E 22 35 12 19 1017.0 1017.0 0.0
30/11:30am 31.9 26.8 7.5 22 13.4 E 24 41 13 22 1017.6 1017.6 0.0
30/11:00am 31.3 26.0 8.3 24 12.7 E 26 37 14 20 1018.1 1018.1 0.0
30/10:30am 30.7 25.5 9.0 26 12.1 E 26 35 14 19 1018.6 1018.6 0.0
30/10:00am 30.5 25.1 9.4 27 11.8 E 28 35 15 19 1019.0 1019.0 0.0
30/09:30am 29.6 23.8 8.1 26 11.8 ESE 28 37 15 20 1019.4 1019.4 0.0
30/09:00am 29.3 23.4 6.0 23 12.2 E 26 35 14 19 1019.5 1019.5 0.0
30/08:30am 28.6 21.9 5.5 23 12.0 E 30 35 16 19 1019.4 1019.4 0.0
30/08:00am 27.8 22.1 4.8 23 11.7 ESE 24 33 13 18 1019.2 1019.2 0.0
30/07:30am 26.1 21.7 4.6 25 10.8 ESE 17 20 9 11 1019.1 1019.1 0.0
30/07:00am 24.2 20.1 4.6 28 9.7 ESE 15 19 8 10 1018.9 1018.9 0.0
30/06:30am 22.9 18.7 3.9 29 9.3 E 15 19 8 10 1018.5 1018.5 0.0
30/06:00am 21.1 17.4 4.2 33 8.2 E 13 15 7 8 1018.1 1018.1 0.0
30/05:30am 20.8 17.7 3.5 32 8.2 E 9 11 5 6 1017.9 1017.9 0.0
30/05:00am 21.8 18.7 3.5 30 8.8 E 9 15 5 8 1017.6 1017.6 0.0
30/04:30am 22.2 18.8 3.8 30 8.9 E 11 15 6 8 1017.2 1017.2 0.0
30/04:00am 21.1 17.7 3.8 32 8.3 ENE 11 13 6 7 1016.9 1016.9 0.0
30/03:30am 21.0 17.5 3.7 32 8.3 ENE 11 13 6 7 1016.7 1016.7 0.0
30/03:00am 20.4 16.9 3.6 33 8.0 E 11 13 6 7 1016.7 1016.7 0.0
30/02:30am 19.5 16.2 2.4 32 7.9 E 9 11 5 6 1016.8 1016.8 0.0
30/02:00am 20.6 17.1 3.3 32 8.2 ENE 11 13 6 7 1017.0 1017.0 0.0
30/01:30am 20.5 17.4 3.7 33 8.0 E 9 11 5 6 1017.2 1017.2 0.0
30/01:00am 17.8 14.1 2.5 36 7.0 E 11 13 6 7 1017.3 1017.3 0.0
30/12:30am 18.7 15.5 2.9 35 7.3 ENE 9 9 5 5 1017.5 1017.5 0.0
30/12:00am 17.9 14.9 2.2 35 7.1 E 7 9 4 5 1017.6 1017.6 0.0
 
Date/Time
WST
Temp
°C
App
Temp
°C
Dew
Point
Rel
Hum
%
Delta-T
°C
Wind Press
QNH
hPa
Press
MSL
hPa
Rain
since 9 am
mm
Dir
 
Spd
km/h
Gust
km/h
Spd
kts
Gust
kts
29/11:30pm 18.6 15.5 1.6 32 7.7 ENE 7 9 4 5 1017.7 1017.7 0.0
29/11:00pm 18.8 15.4 1.8 32 7.7 ENE 9 11 5 6 1017.7 1017.7 0.0
29/10:30pm 20.9 17.2 2.2 29 8.7 E 11 13 6 7 1017.6 1017.6 0.0
29/10:00pm 21.8 17.9 3.5 30 8.8 E 13 15 7 8 1017.7 1017.7 0.0
29/09:30pm 20.3 16.9 1.7 29 8.5 E 9 11 5 6 1017.7 1017.7 0.0
29/09:00pm 22.2 18.9 2.3 27 9.3 E 9 9 5 5 1017.7 1017.7 0.0
29/08:30pm 23.5 19.8 2.4 25 10.0 E 11 11 6 6 1017.7 1017.7 0.0
29/08:00pm 23.9 20.2 2.1 24 10.3 E 11 11 6 6 1017.7 1017.7 0.0
29/07:30pm 24.2 20.5 2.4 24 10.4 E 11 11 6 6 1017.5 1017.5 0.0
29/07:00pm 25.3 21.9 2.1 22 11.1 E 9 9 5 5 1017.2 1017.2 0.0
29/06:30pm 25.4 22.1 2.2 22 11.1 E 9 11 5 6 1016.8 1016.8 0.0
29/06:00pm 25.9 22.1 1.9 21 11.5 E 11 13 6 7 1016.6 1016.6 0.0
29/05:30pm 27.9 23.4 2.2 19 12.6 SE 15 19 8 10 1016.3 1016.3 0.0
29/05:00pm 29.4 24.6 2.6 18 13.3 SE 17 20 9 11 1016.0 1016.0 0.0
29/04:30pm 30.6 25.5 2.8 17 14.0 SSE 19 24 10 13 1015.9 1015.9 0.0
29/04:00pm 31.4 27.0 2.6 16 14.5 SE 15 24 8 13 1015.8 1015.8 0.0
29/03:30pm 31.6 26.8 2.7 16 14.6 E 17 26 9 14 1015.6 1015.6 0.0
29/03:00pm 31.4 26.6 2.6 16 14.5 E 17 28 9 15 1015.7 1015.7 0.0
29/02:30pm 32.1 27.6 2.2 15 15.0 ENE 15 24 8 13 1015.7 1015.7 0.0
29/02:00pm 31.2 26.2 1.5 15 14.6 ESE 17 28 9 15 1016.0 1016.0 0.0
29/01:30pm 31.1 26.2 2.3 16 14.4 E 17 26 9 14 1016.5 1016.5 0.0
29/01:00pm 31.2 25.8 1.5 15 14.6 E 19 26 10 14 1016.9 1016.9 0.0
29/12:30pm 31.3 25.9 2.5 16 14.5 ENE 20 30 11 16 1017.3 1017.3 0.0
29/12:00pm 29.8 24.4 1.3 16 13.9 SE 19 28 10 15 1018.0 1018.0 0.0
29/11:30am 29.7 24.1 1.2 16 13.9 ESE 20 32 11 17 1018.6 1018.6 0.0
29/11:00am 29.1 23.6 1.6 17 13.4 SE 20 28 11 15 1019.2 1019.2 0.0
29/10:30am 28.3 22.8 1.7 18 12.9 SE 20 28 11 15 1019.8 1019.8 0.0
29/10:00am 27.9 21.6 1.4 18 12.7 SE 24 35 13 19 1020.3 1020.3 0.0
29/09:30am 26.9 20.1 0.6 18 12.4 SE 26 35 14 19 1020.9 1020.9 0.0
29/09:00am 26.2 19.0 0.8 19 11.9 SE 28 35 15 19 1021.2 1021.2 0.0
29/08:30am 26.1 19.5 2.1 21 11.6 SE 26 35 14 19 1021.3 1021.3 0.0
29/08:00am 24.6 17.9 1.5 22 10.9 SE 26 35 14 19 1021.2 1021.2 0.0
29/07:30am 24.1 18.3 2.3 24 10.4 SE 22 30 12 16 1020.8 1020.8 0.0
29/07:00am 22.8 19.1 2.3 26 9.6 SE 11 15 6 8 1020.4 1020.4 0.0
29/06:30am 20.7 17.5 3.0 31 8.3 SE 9 15 5 8 1020.0 1020.0 0.0
29/06:00am 17.7 15.0 2.5 36 6.9 E 6 7 3 4 1019.8 1019.8 0.0
29/05:30am 17.6 14.3 2.4 36 6.9 ESE 9 11 5 6 1019.4 1019.4 0.0
29/05:00am 19.4 15.7 2.3 32 7.8 SE 11 13 6 7 1019.1 1019.1 0.0
29/04:30am 18.6 15.7 2.4 34 7.4 SE 7 9 4 5 1018.8 1018.8 0.0
29/04:00am 19.5 16.8 2.8 33 7.7 SE 6 7 3 4 1018.6 1018.6 0.0
29/03:30am 19.1 16.3 2.9 34 7.5 E 7 9 4 5 1018.4 1018.4 0.0
29/03:00am 20.2 17.4 3.0 32 8.1 ESE 7 9 4 5 1018.4 1018.4 0.0
29/02:30am 20.4 17.2 3.2 32 8.1 ESE 9 11 5 6 1018.4 1018.4 0.0
29/02:00am 19.4 16.6 3.2 34 7.6 SE 7 9 4 5 1018.6 1018.6 0.0
29/01:30am 19.4 16.5 2.7 33 7.7 SSE 7 9 4 5 1018.9 1018.9 0.0
29/01:00am 20.6 17.4 3.3 32 8.2 SSE 9 11 5 6 1019.1 1019.1 0.0
29/12:30am 19.6 17.4 3.3 34 7.7 SSE 4 9 2 5 1019.2 1019.2 0.0
29/12:00am 19.5 16.7 3.2 34 7.6 E 7 11 4 6 1019.2 1019.2 0.0
 
Date/Time
WST
Temp
°C
App
Temp
°C
Dew
Point
Rel
Hum
%
Delta-T
°C
Wind Press
QNH
hPa
Press
MSL
hPa
Rain
since 9 am
mm
Dir
 
Spd
km/h
Gust
km/h
Spd
kts
Gust
kts
28/11:30pm 21.1 16.5 3.8 32 8.3 SE 17 19 9 10 1019.2 1019.2 0.0
28/11:00pm 20.3 16.5 3.9 34 7.8 SE 13 15 7 8 1019.2 1019.2 0.0
28/10:30pm 19.9 16.5 4.0 35 7.6 SE 11 11 6 6 1019.2 1019.2 0.0
28/10:00pm 20.1 16.4 4.2 35 7.6 ESE 13 13 7 7 1019.3 1019.3 0.0
28/09:30pm 22.3 19.4 4.8 32 8.6 ESE 9 11 5 6 1019.4 1019.4 0.0
28/09:00pm 22.1 18.8 4.6 32 8.6 SE 11 13 6 7 1019.4 1019.4 0.0
28/08:30pm 21.9 18.1 4.0 31 8.7 SE 13 15 7 8 1019.3 1019.3 0.0
28/08:00pm 24.1 20.9 5.0 29 9.6 E 11 13 6 7 1019.1 1019.1 0.0
28/07:30pm 24.5 21.3 5.3 29 9.7 E 11 11 6 6 1018.9 1018.9 0.0
28/07:00pm 23.3 19.6 4.3 29 9.3 ESE 13 15 7 8 1018.5 1018.5 0.0
28/06:30pm 25.7 21.7 4.8 26 10.5 SE 15 19 8 10 1018.1 1018.1 0.0
28/06:00pm 27.7 23.0 5.3 24 11.5 SSE 19 26 10 14 1017.6 1017.6 0.0
28/05:30pm 27.9 23.7 5.5 24 11.6 SE 17 26 9 14 1017.3 1017.3 0.0
28/05:00pm 29.0 24.1 5.1 22 12.4 SE 20 28 11 15 1016.9 1016.9 0.0
28/04:30pm 29.9 24.3 5.2 21 12.9 SE 24 32 13 17 1016.7 1016.7 0.0
28/04:00pm 30.7 25.1 5.2 20 13.3 SSE 24 32 13 17 1016.5 1016.5 0.0
28/03:30pm 30.9 25.7 5.3 20 13.5 SE 22 35 12 19 1016.4 1016.4 0.0
28/03:00pm 30.9 25.3 5.3 20 13.4 SE 24 35 13 19 1016.4 1016.4 0.0
28/02:30pm 31.7 26.1 5.3 19 13.9 SE 24 35 13 19 1016.3 1016.3 0.0
28/02:00pm 31.6 26.3 5.2 19 13.9 SE 22 35 12 19 1016.6 1016.6 0.0
28/01:30pm 31.6 26.7 5.2 19 13.9 ESE 20 32 11 17 1016.9 1016.9 0.0

Other Formats:

Comma delimited format used in spreadsheet applications
http://www.bom.gov.au/fwo/IDW60801/IDW60801.95214.axf

JavaScript Object Notation format (JSON) in row-major order
http://www.bom.gov.au/fwo/IDW60801/IDW60801.95214.json